sensor_id;sensor_type;location;lat;lon;timestamp;pressure;altitude;pressure_sealevel;temperature;humidity
50226;BME280;36113;50.742;6.432;2023-05-09T00:00:21;112741.81;;;-145.50;100.00
50226;BME280;36113;50.742;6.432;2023-05-09T00:02:47;112741.81;;;-145.50;100.00
50226;BME280;36113;50.742;6.432;2023-05-09T00:05:12;112741.81;;;-145.50;100.00
50226;BME280;36113;50.742;6.432;2023-05-09T00:07:39;112741.81;;;-145.50;100.00
50226;BME280;36113;50.742;6.432;2023-05-09T00:10:04;112741.81;;;-145.50;100.00
50226;BME280;36113;50.742;6.432;2023-05-09T00:12:30;112741.81;;;-145.50;100.00
50226;BME280;36113;50.742;6.432;2023-05-09T00:14:56;112741.81;;;-145.50;100.00
50226;BME280;36113;50.742;6.432;2023-05-09T00:17:22;112741.81;;;-145.50;100.00
50226;BME280;36113;50.742;6.432;2023-05-09T00:19:50;112741.81;;;-145.50;100.00
50226;BME280;36113;50.742;6.432;2023-05-09T00:22:18;112741.81;;;-145.50;100.00
50226;BME280;36113;50.742;6.432;2023-05-09T00:24:46;112741.81;;;-145.50;100.00
50226;BME280;36113;50.742;6.432;2023-05-09T00:27:11;112741.81;;;-145.50;100.00
50226;BME280;36113;50.742;6.432;2023-05-09T00:29:36;112741.81;;;-145.50;100.00
50226;BME280;36113;50.742;6.432;2023-05-09T00:32:02;112741.81;;;-145.50;100.00
50226;BME280;36113;50.742;6.432;2023-05-09T00:34:27;112741.81;;;-145.50;100.00
50226;BME280;36113;50.742;6.432;2023-05-09T00:36:52;112741.81;;;-145.50;100.00
50226;BME280;36113;50.742;6.432;2023-05-09T00:39:18;112741.81;;;-145.50;100.00
50226;BME280;36113;50.742;6.432;2023-05-09T00:41:43;112741.81;;;-145.50;100.00
50226;BME280;36113;50.742;6.432;2023-05-09T00:44:08;112741.81;;;-145.50;100.00
50226;BME280;36113;50.742;6.432;2023-05-09T00:46:34;112741.81;;;-145.50;100.00
50226;BME280;36113;50.742;6.432;2023-05-09T00:49:00;112741.81;;;-145.50;100.00
50226;BME280;36113;50.742;6.432;2023-05-09T00:51:27;112741.81;;;-145.50;100.00
50226;BME280;36113;50.742;6.432;2023-05-09T00:53:53;112741.81;;;-145.50;100.00
50226;BME280;36113;50.742;6.432;2023-05-09T00:56:18;112741.81;;;-145.50;100.00
50226;BME280;36113;50.742;6.432;2023-05-09T00:58:44;112741.81;;;-145.50;100.00
50226;BME280;36113;50.742;6.432;2023-05-09T01:01:09;112741.81;;;-145.50;100.00
50226;BME280;36113;50.742;6.432;2023-05-09T01:03:37;112741.81;;;-145.50;100.00
50226;BME280;36113;50.742;6.432;2023-05-09T01:06:12;112741.81;;;-145.50;100.00
50226;BME280;36113;50.742;6.432;2023-05-09T01:08:45;112741.81;;;-145.50;100.00
50226;BME280;36113;50.742;6.432;2023-05-09T01:16:48;112741.81;;;-145.50;100.00
50226;BME280;36113;50.742;6.432;2023-05-09T01:22:06;112741.81;;;-145.50;100.00
50226;BME280;36113;50.742;6.432;2023-05-09T01:29:56;112741.81;;;-145.50;100.00
50226;BME280;36113;50.742;6.432;2023-05-09T01:32:27;112741.81;;;-145.50;100.00
50226;BME280;36113;50.742;6.432;2023-05-09T01:34:58;112741.81;;;-145.50;100.00
50226;BME280;36113;50.742;6.432;2023-05-09T01:37:35;112741.81;;;-145.50;100.00
50226;BME280;36113;50.742;6.432;2023-05-09T01:40:18;112741.81;;;-145.50;100.00
50226;BME280;36113;50.742;6.432;2023-05-09T01:43:06;112741.81;;;-145.50;100.00
50226;BME280;36113;50.742;6.432;2023-05-09T01:45:32;112741.81;;;-145.50;100.00
50226;BME280;36113;50.742;6.432;2023-05-09T01:47:59;112741.81;;;-145.50;100.00
50226;BME280;36113;50.742;6.432;2023-05-09T01:50:24;112741.81;;;-145.50;100.00
50226;BME280;36113;50.742;6.432;2023-05-09T01:52:52;112741.81;;;-145.50;100.00
50226;BME280;36113;50.742;6.432;2023-05-09T01:55:20;112741.81;;;-145.50;100.00
50226;BME280;36113;50.742;6.432;2023-05-09T01:57:49;112741.81;;;-145.50;100.00
50226;BME280;36113;50.742;6.432;2023-05-09T02:00:15;112741.81;;;-145.50;100.00
50226;BME280;36113;50.742;6.432;2023-05-09T02:02:41;112741.81;;;-145.50;100.00
50226;BME280;36113;50.742;6.432;2023-05-09T02:05:10;112741.81;;;-145.50;100.00
50226;BME280;36113;50.742;6.432;2023-05-09T02:07:37;112741.81;;;-145.50;100.00
50226;BME280;36113;50.742;6.432;2023-05-09T02:10:06;112741.81;;;-145.50;100.00
50226;BME280;36113;50.742;6.432;2023-05-09T02:12:32;112741.81;;;-145.50;100.00
50226;BME280;36113;50.742;6.432;2023-05-09T02:14:58;112741.81;;;-145.50;100.00
50226;BME280;36113;50.742;6.432;2023-05-09T02:17:23;112741.81;;;-145.50;100.00
50226;BME280;36113;50.742;6.432;2023-05-09T02:19:48;112741.81;;;-145.50;100.00
50226;BME280;36113;50.742;6.432;2023-05-09T02:22:14;112741.81;;;-145.50;100.00
50226;BME280;36113;50.742;6.432;2023-05-09T02:24:41;112741.81;;;-145.50;100.00
50226;BME280;36113;50.742;6.432;2023-05-09T02:27:07;112741.81;;;-145.50;100.00
50226;BME280;36113;50.742;6.432;2023-05-09T02:29:37;112741.81;;;-145.50;100.00
50226;BME280;36113;50.742;6.432;2023-05-09T02:32:26;112741.81;;;-145.50;100.00
50226;BME280;36113;50.742;6.432;2023-05-09T02:34:53;112741.81;;;-145.50;100.00
50226;BME280;36113;50.742;6.432;2023-05-09T02:37:20;112741.81;;;-145.50;100.00
50226;BME280;36113;50.742;6.432;2023-05-09T02:39:46;112741.81;;;-145.50;100.00
50226;BME280;36113;50.742;6.432;2023-05-09T02:42:12;112741.81;;;-145.50;100.00
50226;BME280;36113;50.742;6.432;2023-05-09T02:44:39;112741.81;;;-145.50;100.00
50226;BME280;36113;50.742;6.432;2023-05-09T02:47:05;112741.81;;;-145.50;100.00
50226;BME280;36113;50.742;6.432;2023-05-09T02:49:32;112741.81;;;-145.50;100.00
50226;BME280;36113;50.742;6.432;2023-05-09T02:51:57;112741.81;;;-145.50;100.00
50226;BME280;36113;50.742;6.432;2023-05-09T02:54:22;112741.81;;;-145.50;100.00
50226;BME280;36113;50.742;6.432;2023-05-09T02:56:48;112741.81;;;-145.50;100.00
50226;BME280;36113;50.742;6.432;2023-05-09T02:59:14;112741.81;;;-145.50;100.00
50226;BME280;36113;50.742;6.432;2023-05-09T03:01:40;112741.81;;;-145.50;100.00
50226;BME280;36113;50.742;6.432;2023-05-09T03:04:05;112741.81;;;-145.50;100.00
50226;BME280;36113;50.742;6.432;2023-05-09T03:06:31;112741.81;;;-145.50;100.00
50226;BME280;36113;50.742;6.432;2023-05-09T03:08:56;112741.81;;;-145.50;100.00
50226;BME280;36113;50.742;6.432;2023-05-09T03:11:22;112741.81;;;-145.50;100.00
50226;BME280;36113;50.742;6.432;2023-05-09T03:13:47;112741.81;;;-145.50;100.00
50226;BME280;36113;50.742;6.432;2023-05-09T03:16:13;112741.81;;;-145.50;100.00
50226;BME280;36113;50.742;6.432;2023-05-09T03:18:39;112741.81;;;-145.50;100.00
50226;BME280;36113;50.742;6.432;2023-05-09T03:21:05;112741.81;;;-145.50;100.00
50226;BME280;36113;50.742;6.432;2023-05-09T03:23:30;112741.81;;;-145.50;100.00
50226;BME280;36113;50.742;6.432;2023-05-09T03:25:55;112741.81;;;-145.50;100.00
50226;BME280;36113;50.742;6.432;2023-05-09T03:28:21;112741.81;;;-145.50;100.00
50226;BME280;36113;50.742;6.432;2023-05-09T03:30:46;112741.81;;;-145.50;100.00
50226;BME280;36113;50.742;6.432;2023-05-09T03:33:11;112741.81;;;-145.50;100.00
50226;BME280;36113;50.742;6.432;2023-05-09T03:35:36;112741.81;;;-145.50;100.00
50226;BME280;36113;50.742;6.432;2023-05-09T03:38:02;112741.81;;;-145.50;100.00
50226;BME280;36113;50.742;6.432;2023-05-09T03:40:27;112741.81;;;-145.50;100.00
50226;BME280;36113;50.742;6.432;2023-05-09T03:42:52;112741.81;;;-145.50;100.00
50226;BME280;36113;50.742;6.432;2023-05-09T03:45:18;112741.81;;;-145.50;100.00
50226;BME280;36113;50.742;6.432;2023-05-09T03:47:43;112741.81;;;-145.50;100.00
50226;BME280;36113;50.742;6.432;2023-05-09T03:50:09;112741.81;;;-145.50;100.00
50226;BME280;36113;50.742;6.432;2023-05-09T03:52:34;112741.81;;;-145.50;100.00
50226;BME280;36113;50.742;6.432;2023-05-09T03:55:01;112741.81;;;-145.50;100.00
50226;BME280;36113;50.742;6.432;2023-05-09T03:57:26;112741.81;;;-145.50;100.00
50226;BME280;36113;50.742;6.432;2023-05-09T03:59:51;112741.81;;;-145.50;100.00
50226;BME280;36113;50.742;6.432;2023-05-09T04:02:17;112741.81;;;-145.50;100.00
50226;BME280;36113;50.742;6.432;2023-05-09T04:04:42;112741.81;;;-145.50;100.00
50226;BME280;36113;50.742;6.432;2023-05-09T04:07:08;112741.81;;;-145.50;100.00
50226;BME280;36113;50.742;6.432;2023-05-09T04:09:34;112741.81;;;-145.50;100.00
50226;BME280;36113;50.742;6.432;2023-05-09T04:11:59;112741.81;;;-145.50;100.00
50226;BME280;36113;50.742;6.432;2023-05-09T04:14:24;112741.81;;;-145.50;100.00
50226;BME280;36113;50.742;6.432;2023-05-09T04:16:50;112741.81;;;-145.50;100.00
50226;BME280;36113;50.742;6.432;2023-05-09T04:19:15;112741.81;;;-145.50;100.00
50226;BME280;36113;50.742;6.432;2023-05-09T04:21:40;112741.81;;;-145.50;100.00
50226;BME280;36113;50.742;6.432;2023-05-09T04:24:06;112741.81;;;-145.50;100.00
50226;BME280;36113;50.742;6.432;2023-05-09T04:26:31;112741.81;;;-145.50;100.00
50226;BME280;36113;50.742;6.432;2023-05-09T04:28:57;112741.81;;;-145.50;100.00
50226;BME280;36113;50.742;6.432;2023-05-09T04:31:22;112741.81;;;-145.50;100.00
50226;BME280;36113;50.742;6.432;2023-05-09T04:33:47;112741.81;;;-145.50;100.00
50226;BME280;36113;50.742;6.432;2023-05-09T04:36:13;112741.81;;;-145.50;100.00
50226;BME280;36113;50.742;6.432;2023-05-09T04:38:38;112741.81;;;-145.50;100.00
50226;BME280;36113;50.742;6.432;2023-05-09T04:41:03;112741.81;;;-145.50;100.00
50226;BME280;36113;50.742;6.432;2023-05-09T04:43:28;112741.81;;;-145.50;100.00
50226;BME280;36113;50.742;6.432;2023-05-09T04:45:55;112741.81;;;-145.50;100.00
50226;BME280;36113;50.742;6.432;2023-05-09T04:48:20;112741.81;;;-145.50;100.00
50226;BME280;36113;50.742;6.432;2023-05-09T04:50:45;112741.81;;;-145.50;100.00
50226;BME280;36113;50.742;6.432;2023-05-09T04:53:12;112741.81;;;-145.50;100.00
50226;BME280;36113;50.742;6.432;2023-05-09T04:55:38;112741.81;;;-145.50;100.00
50226;BME280;36113;50.742;6.432;2023-05-09T04:58:03;112741.81;;;-145.50;100.00
50226;BME280;36113;50.742;6.432;2023-05-09T05:00:28;112741.81;;;-145.50;100.00
50226;BME280;36113;50.742;6.432;2023-05-09T05:02:54;112741.81;;;-145.50;100.00
50226;BME280;36113;50.742;6.432;2023-05-09T05:05:19;112741.81;;;-145.50;100.00
50226;BME280;36113;50.742;6.432;2023-05-09T05:07:45;112741.81;;;-145.50;100.00
50226;BME280;36113;50.742;6.432;2023-05-09T05:10:10;112741.81;;;-145.50;100.00
50226;BME280;36113;50.742;6.432;2023-05-09T05:12:36;112741.81;;;-145.50;100.00
50226;BME280;36113;50.742;6.432;2023-05-09T05:15:01;112741.81;;;-145.50;100.00
50226;BME280;36113;50.742;6.432;2023-05-09T05:17:26;112741.81;;;-145.50;100.00
50226;BME280;36113;50.742;6.432;2023-05-09T05:19:53;112741.81;;;-145.50;100.00
50226;BME280;36113;50.742;6.432;2023-05-09T05:22:18;112741.81;;;-145.50;100.00
50226;BME280;36113;50.742;6.432;2023-05-09T05:24:44;112741.81;;;-145.50;100.00
50226;BME280;36113;50.742;6.432;2023-05-09T05:27:09;112741.81;;;-145.50;100.00
50226;BME280;36113;50.742;6.432;2023-05-09T05:29:34;112741.81;;;-145.50;100.00
50226;BME280;36113;50.742;6.432;2023-05-09T05:32:00;112741.81;;;-145.50;100.00
50226;BME280;36113;50.742;6.432;2023-05-09T05:34:25;112741.81;;;-145.50;100.00
50226;BME280;36113;50.742;6.432;2023-05-09T05:36:50;112741.81;;;-145.50;100.00
50226;BME280;36113;50.742;6.432;2023-05-09T05:39:15;112741.81;;;-145.50;100.00
50226;BME280;36113;50.742;6.432;2023-05-09T05:41:41;112741.81;;;-145.50;100.00
50226;BME280;36113;50.742;6.432;2023-05-09T05:44:06;112741.81;;;-145.50;100.00
50226;BME280;36113;50.742;6.432;2023-05-09T05:46:31;112741.81;;;-145.50;100.00
50226;BME280;36113;50.742;6.432;2023-05-09T05:48:57;112741.81;;;-145.50;100.00
50226;BME280;36113;50.742;6.432;2023-05-09T05:51:22;112741.81;;;-145.50;100.00
50226;BME280;36113;50.742;6.432;2023-05-09T05:53:47;112741.81;;;-145.50;100.00
50226;BME280;36113;50.742;6.432;2023-05-09T05:56:12;112741.81;;;-145.50;100.00
50226;BME280;36113;50.742;6.432;2023-05-09T05:58:38;112741.81;;;-145.50;100.00
50226;BME280;36113;50.742;6.432;2023-05-09T06:01:03;112741.81;;;-145.50;100.00
50226;BME280;36113;50.742;6.432;2023-05-09T06:03:28;112741.81;;;-145.50;98.74
50226;BME280;36113;50.742;6.432;2023-05-09T06:05:54;112741.81;;;-145.50;96.64
50226;BME280;36113;50.742;6.432;2023-05-09T06:08:20;112741.81;;;-145.50;94.67
50226;BME280;36113;50.742;6.432;2023-05-09T06:10:45;112741.81;;;-145.50;94.94
50226;BME280;36113;50.742;6.432;2023-05-09T06:13:11;112741.81;;;-145.50;95.31
50226;BME280;36113;50.742;6.432;2023-05-09T06:15:36;112741.81;;;-145.50;93.75
50226;BME280;36113;50.742;6.432;2023-05-09T06:18:01;112741.81;;;-145.50;93.78
50226;BME280;36113;50.742;6.432;2023-05-09T06:20:27;112741.81;;;-145.50;94.18
50226;BME280;36113;50.742;6.432;2023-05-09T06:22:52;112741.81;;;-145.50;94.94
50226;BME280;36113;50.742;6.432;2023-05-09T06:25:18;112741.81;;;-145.50;93.27
50226;BME280;36113;50.742;6.432;2023-05-09T06:27:43;112741.81;;;-145.50;92.75
50226;BME280;36113;50.742;6.432;2023-05-09T06:30:09;112741.81;;;-145.50;93.16
50226;BME280;36113;50.742;6.432;2023-05-09T06:32:34;112741.81;;;-145.50;92.52
50226;BME280;36113;50.742;6.432;2023-05-09T06:34:59;112741.81;;;-145.50;92.10
50226;BME280;36113;50.742;6.432;2023-05-09T06:37:25;112741.81;;;-145.50;92.38
50226;BME280;36113;50.742;6.432;2023-05-09T06:39:50;112741.81;;;-145.50;92.26
50226;BME280;36113;50.742;6.432;2023-05-09T06:42:15;112741.81;;;-145.50;92.01
50226;BME280;36113;50.742;6.432;2023-05-09T06:44:41;112741.81;;;-145.50;91.21
50226;BME280;36113;50.742;6.432;2023-05-09T06:47:08;112741.81;;;-145.50;92.00
50226;BME280;36113;50.742;6.432;2023-05-09T06:49:33;112741.81;;;-145.50;92.37
50226;BME280;36113;50.742;6.432;2023-05-09T06:51:58;112741.81;;;-145.50;92.21
50226;BME280;36113;50.742;6.432;2023-05-09T06:54:23;112741.81;;;-145.50;92.53
50226;BME280;36113;50.742;6.432;2023-05-09T06:56:49;112741.81;;;-145.50;93.00
50226;BME280;36113;50.742;6.432;2023-05-09T06:59:14;112741.81;;;-145.50;91.98
50226;BME280;36113;50.742;6.432;2023-05-09T07:01:40;112741.81;;;-145.50;91.65
50226;BME280;36113;50.742;6.432;2023-05-09T07:04:06;112741.81;;;-145.50;91.44
50226;BME280;36113;50.742;6.432;2023-05-09T07:06:31;112741.81;;;-145.50;90.96
50226;BME280;36113;50.742;6.432;2023-05-09T07:08:57;112741.81;;;-145.50;89.57
50226;BME280;36113;50.742;6.432;2023-05-09T07:11:22;112741.81;;;-145.50;89.45
50226;BME280;36113;50.742;6.432;2023-05-09T07:13:47;112741.81;;;-145.50;90.21
50226;BME280;36113;50.742;6.432;2023-05-09T07:16:13;112741.81;;;-145.50;89.66
50226;BME280;36113;50.742;6.432;2023-05-09T07:18:39;112741.81;;;-145.50;89.06
50226;BME280;36113;50.742;6.432;2023-05-09T07:21:04;112741.81;;;-145.50;89.36
50226;BME280;36113;50.742;6.432;2023-05-09T07:23:29;112741.81;;;-145.50;88.94
50226;BME280;36113;50.742;6.432;2023-05-09T07:25:58;112741.81;;;-145.50;89.41
50226;BME280;36113;50.742;6.432;2023-05-09T07:28:24;112741.81;;;-145.50;88.29
50226;BME280;36113;50.742;6.432;2023-05-09T07:30:50;112741.81;;;-145.50;86.87
50226;BME280;36113;50.742;6.432;2023-05-09T07:33:18;112741.81;;;-145.50;85.85
50226;BME280;36113;50.742;6.432;2023-05-09T07:35:44;112741.81;;;-145.50;86.50
50226;BME280;36113;50.742;6.432;2023-05-09T07:38:09;112741.81;;;-145.50;86.38
50226;BME280;36113;50.742;6.432;2023-05-09T07:40:35;112741.81;;;-145.50;84.82
50226;BME280;36113;50.742;6.432;2023-05-09T07:43:02;112741.81;;;-145.50;84.56
50226;BME280;36113;50.742;6.432;2023-05-09T07:45:28;112741.81;;;-145.50;84.03
50226;BME280;36113;50.742;6.432;2023-05-09T07:47:53;112741.81;;;-145.50;85.11
50226;BME280;36113;50.742;6.432;2023-05-09T07:50:18;112741.81;;;-145.50;84.09
50226;BME280;36113;50.742;6.432;2023-05-09T07:52:44;112741.81;;;-145.50;83.86
50226;BME280;36113;50.742;6.432;2023-05-09T07:55:09;112741.81;;;-145.50;81.19
50226;BME280;36113;50.742;6.432;2023-05-09T07:57:36;112741.81;;;-145.50;82.05
50226;BME280;36113;50.742;6.432;2023-05-09T08:00:02;112741.81;;;-145.50;81.13
50226;BME280;36113;50.742;6.432;2023-05-09T08:02:30;112741.81;;;-145.50;81.14
50226;BME280;36113;50.742;6.432;2023-05-09T08:04:55;112741.81;;;-145.50;80.70
50226;BME280;36113;50.742;6.432;2023-05-09T08:07:20;112741.81;;;-145.50;80.65
50226;BME280;36113;50.742;6.432;2023-05-09T08:09:46;112741.81;;;-145.50;80.30
50226;BME280;36113;50.742;6.432;2023-05-09T08:12:11;112741.81;;;-145.50;79.81
50226;BME280;36113;50.742;6.432;2023-05-09T08:14:36;112741.81;;;-145.50;80.22
50226;BME280;36113;50.742;6.432;2023-05-09T08:17:02;112741.81;;;-145.50;79.38
50226;BME280;36113;50.742;6.432;2023-05-09T08:19:27;112741.81;;;-145.50;78.78
50226;BME280;36113;50.742;6.432;2023-05-09T08:21:52;112741.81;;;-145.50;78.11
50226;BME280;36113;50.742;6.432;2023-05-09T08:24:18;112741.81;;;-145.50;76.97
50226;BME280;36113;50.742;6.432;2023-05-09T08:26:43;112741.81;;;-145.50;77.27
50226;BME280;36113;50.742;6.432;2023-05-09T08:29:09;112741.81;;;-145.50;76.93
50226;BME280;36113;50.742;6.432;2023-05-09T08:31:34;112741.81;;;-145.50;73.97
50226;BME280;36113;50.742;6.432;2023-05-09T08:33:59;112741.81;;;-145.50;74.66
50226;BME280;36113;50.742;6.432;2023-05-09T08:36:25;112741.81;;;-145.50;74.53
50226;BME280;36113;50.742;6.432;2023-05-09T08:38:50;112741.81;;;-145.50;75.04
50226;BME280;36113;50.742;6.432;2023-05-09T08:41:15;112741.81;;;-145.50;74.47
50226;BME280;36113;50.742;6.432;2023-05-09T08:43:41;112741.81;;;-145.50;73.26
50226;BME280;36113;50.742;6.432;2023-05-09T08:46:08;112741.81;;;-145.50;74.78
50226;BME280;36113;50.742;6.432;2023-05-09T08:48:35;112741.81;;;-145.50;74.91
50226;BME280;36113;50.742;6.432;2023-05-09T08:51:04;112741.81;;;-145.50;72.24
50226;BME280;36113;50.742;6.432;2023-05-09T08:53:30;112741.81;;;-145.50;72.63
50226;BME280;36113;50.742;6.432;2023-05-09T08:55:57;112741.81;;;-145.50;69.51
50226;BME280;36113;50.742;6.432;2023-05-09T08:58:23;112741.81;;;-145.50;70.18
50226;BME280;36113;50.742;6.432;2023-05-09T09:00:48;112741.81;;;-145.50;68.61
50226;BME280;36113;50.742;6.432;2023-05-09T09:03:16;112741.81;;;-145.50;70.01
50226;BME280;36113;50.742;6.432;2023-05-09T09:05:43;112741.81;;;-145.50;70.14
50226;BME280;36113;50.742;6.432;2023-05-09T09:08:10;112741.81;;;-145.50;65.76
50226;BME280;36113;50.742;6.432;2023-05-09T09:10:41;112741.81;;;-145.50;67.82
50226;BME280;36113;50.742;6.432;2023-05-09T09:13:12;112741.81;;;-145.50;67.51
50226;BME280;36113;50.742;6.432;2023-05-09T09:15:39;112741.81;;;-145.50;68.58
50226;BME280;36113;50.742;6.432;2023-05-09T09:18:07;112741.81;;;-145.50;68.20
50226;BME280;36113;50.742;6.432;2023-05-09T09:20:34;112741.81;;;-145.50;68.47
50226;BME280;36113;50.742;6.432;2023-05-09T09:23:03;112741.81;;;-145.50;68.02
50226;BME280;36113;50.742;6.432;2023-05-09T09:25:29;112741.81;;;-145.50;67.57
50226;BME280;36113;50.742;6.432;2023-05-09T09:27:55;112741.81;;;-145.50;65.44
50226;BME280;36113;50.742;6.432;2023-05-09T09:30:23;112741.81;;;-145.50;64.90
50226;BME280;36113;50.742;6.432;2023-05-09T09:32:51;112741.81;;;-145.50;64.35
50226;BME280;36113;50.742;6.432;2023-05-09T09:35:17;112741.81;;;-145.50;64.92
50226;BME280;36113;50.742;6.432;2023-05-09T09:37:42;112741.81;;;-145.50;64.32
50226;BME280;36113;50.742;6.432;2023-05-09T09:40:09;112741.81;;;-145.50;61.95
50226;BME280;36113;50.742;6.432;2023-05-09T09:42:42;112741.81;;;-145.50;64.24
50226;BME280;36113;50.742;6.432;2023-05-09T09:45:16;112741.81;;;-145.50;65.92
50226;BME280;36113;50.742;6.432;2023-05-09T09:47:42;112741.81;;;-145.50;63.05
50226;BME280;36113;50.742;6.432;2023-05-09T09:50:19;112741.81;;;-145.50;64.21
50226;BME280;36113;50.742;6.432;2023-05-09T09:52:51;112741.81;;;-145.50;65.03
50226;BME280;36113;50.742;6.432;2023-05-09T09:55:18;112741.81;;;-145.50;66.11
50226;BME280;36113;50.742;6.432;2023-05-09T09:57:45;112741.81;;;-145.50;65.99
50226;BME280;36113;50.742;6.432;2023-05-09T10:00:13;112741.81;;;-145.50;64.60
50226;BME280;36113;50.742;6.432;2023-05-09T10:03:12;112741.81;;;-145.50;62.03
50226;BME280;36113;50.742;6.432;2023-05-09T10:05:38;112741.81;;;-145.50;62.44
50226;BME280;36113;50.742;6.432;2023-05-09T10:08:04;112741.81;;;-145.50;62.35
50226;BME280;36113;50.742;6.432;2023-05-09T10:10:33;112741.81;;;-145.50;63.58
50226;BME280;36113;50.742;6.432;2023-05-09T10:13:02;112741.81;;;-145.50;64.93
50226;BME280;36113;50.742;6.432;2023-05-09T10:15:31;112741.81;;;-145.50;62.39
50226;BME280;36113;50.742;6.432;2023-05-09T10:17:58;112741.81;;;-145.50;63.32
50226;BME280;36113;50.742;6.432;2023-05-09T10:20:26;112741.81;;;-145.50;64.18
50226;BME280;36113;50.742;6.432;2023-05-09T10:22:53;112741.81;;;-145.50;63.68
50226;BME280;36113;50.742;6.432;2023-05-09T10:25:20;112741.81;;;-145.50;60.19
50226;BME280;36113;50.742;6.432;2023-05-09T10:27:46;112741.81;;;-145.50;63.56
50226;BME280;36113;50.742;6.432;2023-05-09T10:30:16;112741.81;;;-145.50;63.44
50226;BME280;36113;50.742;6.432;2023-05-09T10:35:33;112741.81;;;-145.50;57.77
50226;BME280;36113;50.742;6.432;2023-05-09T10:38:00;112741.81;;;-145.50;60.44
50226;BME280;36113;50.742;6.432;2023-05-09T10:40:27;112741.81;;;-145.50;61.42
50226;BME280;36113;50.742;6.432;2023-05-09T10:42:52;112741.81;;;-145.50;61.99
50226;BME280;36113;50.742;6.432;2023-05-09T10:45:19;112741.81;;;-145.50;61.66
50226;BME280;36113;50.742;6.432;2023-05-09T10:47:47;112741.81;;;-145.50;62.85
50226;BME280;36113;50.742;6.432;2023-05-09T10:50:14;112741.81;;;-145.50;61.69
50226;BME280;36113;50.742;6.432;2023-05-09T10:53:18;112741.81;;;-145.50;60.75
50226;BME280;36113;50.742;6.432;2023-05-09T10:58:32;112741.81;;;-145.50;60.05
50226;BME280;36113;50.742;6.432;2023-05-09T11:00:59;112741.81;;;-145.50;58.42
50226;BME280;36113;50.742;6.432;2023-05-09T11:03:25;112741.81;;;-145.50;56.34
50226;BME280;36113;50.742;6.432;2023-05-09T11:05:54;112741.81;;;-145.50;56.26
50226;BME280;36113;50.742;6.432;2023-05-09T11:08:27;112741.81;;;-145.50;57.64
50226;BME280;36113;50.742;6.432;2023-05-09T11:10:57;112741.81;;;-145.50;58.75
50226;BME280;36113;50.742;6.432;2023-05-09T11:13:29;112741.81;;;-145.50;59.86
50226;BME280;36113;50.742;6.432;2023-05-09T11:18:23;112741.81;;;-145.50;56.72
50226;BME280;36113;50.742;6.432;2023-05-09T11:20:49;112741.81;;;-145.50;55.29
50226;BME280;36113;50.742;6.432;2023-05-09T11:23:17;112741.81;;;-145.50;58.79
50226;BME280;36113;50.742;6.432;2023-05-09T11:25:47;112741.81;;;-145.50;57.40
50226;BME280;36113;50.742;6.432;2023-05-09T11:28:29;112741.81;;;-145.50;56.94
50226;BME280;36113;50.742;6.432;2023-05-09T11:31:14;112741.81;;;-145.50;57.85
50226;BME280;36113;50.742;6.432;2023-05-09T11:33:41;112741.81;;;-145.50;59.00
50226;BME280;36113;50.742;6.432;2023-05-09T11:36:17;112741.81;;;-145.50;55.87
50226;BME280;36113;50.742;6.432;2023-05-09T11:38:45;112741.81;;;-145.50;58.08
50226;BME280;36113;50.742;6.432;2023-05-09T11:41:10;112741.81;;;-145.50;57.59
50226;BME280;36113;50.742;6.432;2023-05-09T11:43:37;112741.81;;;-145.50;59.26
50226;BME280;36113;50.742;6.432;2023-05-09T11:46:03;112741.81;;;-145.50;56.90
50226;BME280;36113;50.742;6.432;2023-05-09T11:48:29;112741.81;;;-145.50;58.82
50226;BME280;36113;50.742;6.432;2023-05-09T11:50:54;112741.81;;;-145.50;55.49
50226;BME280;36113;50.742;6.432;2023-05-09T11:53:20;112741.81;;;-145.50;57.11
50226;BME280;36113;50.742;6.432;2023-05-09T11:55:45;112741.81;;;-145.50;56.72
50226;BME280;36113;50.742;6.432;2023-05-09T11:58:10;112741.81;;;-145.50;57.56
50226;BME280;36113;50.742;6.432;2023-05-09T12:00:43;112741.81;;;-145.50;58.47
50226;BME280;36113;50.742;6.432;2023-05-09T12:03:08;112741.81;;;-145.50;55.24
50226;BME280;36113;50.742;6.432;2023-05-09T12:05:33;112741.81;;;-145.50;56.88
50226;BME280;36113;50.742;6.432;2023-05-09T12:08:02;112741.81;;;-145.50;57.74
50226;BME280;36113;50.742;6.432;2023-05-09T12:10:30;112741.81;;;-145.50;58.14
50226;BME280;36113;50.742;6.432;2023-05-09T12:12:55;112741.81;;;-145.50;56.53
50226;BME280;36113;50.742;6.432;2023-05-09T12:15:21;112741.81;;;-145.50;56.33
50226;BME280;36113;50.742;6.432;2023-05-09T12:17:47;112741.81;;;-145.50;58.29
50226;BME280;36113;50.742;6.432;2023-05-09T12:20:24;112741.81;;;-145.50;57.70
50226;BME280;36113;50.742;6.432;2023-05-09T12:22:52;112741.81;;;-145.50;58.54
50226;BME280;36113;50.742;6.432;2023-05-09T12:25:17;112741.81;;;-145.50;59.75
50226;BME280;36113;50.742;6.432;2023-05-09T12:27:43;112741.81;;;-145.50;59.57
50226;BME280;36113;50.742;6.432;2023-05-09T12:30:08;112741.81;;;-145.50;60.98
50226;BME280;36113;50.742;6.432;2023-05-09T12:32:35;112741.81;;;-145.50;61.92
50226;BME280;36113;50.742;6.432;2023-05-09T12:35:03;112741.81;;;-145.50;61.91
50226;BME280;36113;50.742;6.432;2023-05-09T12:37:29;112741.81;;;-145.50;66.44
50226;BME280;36113;50.742;6.432;2023-05-09T12:40:08;112741.81;;;-145.50;71.83
50226;BME280;36113;50.742;6.432;2023-05-09T12:42:36;112741.81;;;-145.50;72.94
50226;BME280;36113;50.742;6.432;2023-05-09T12:45:03;112741.81;;;-145.50;73.99